Terminal Aerodrome Forecast
Issued by NWS

Home | Current Version | Previous Version | Text Only | Print | Product List | Glossary On
Versions: 1 2 3 4 5 6 7 8 9 10 11 12 13 14 15 16 17 18 19 20 21 22 23 24 25 26 27 28
000
FTUS46 KEKA 200836 AAA
TAFUKI
TAF AMD
KUKI 200836Z 2009/2106 16010KT P6SM -RA BKN015 OVC020
     FM201200 15006KT 2SM RA BR OVC020
     FM202000 17010G20KT 4SM -RA BR OVC015
      TEMPO 2103/2106 -TSRA BKN025CB=

USA.gov is the U.S. government's official web portal to all federal, state and local government web resources and services.